createdAt,value
2023-05-15T00:01:49.372Z,28.07
2023-05-15T00:04:17.929Z,29.23
2023-05-15T00:06:46.174Z,29.77
2023-05-15T00:09:14.507Z,28.60
2023-05-15T00:11:42.651Z,29.40
2023-05-15T00:14:12.163Z,29.50
2023-05-15T00:16:40.529Z,30.03
2023-05-15T00:19:08.943Z,29.00
2023-05-15T00:21:37.244Z,33.00
2023-05-15T00:24:05.622Z,32.80
2023-05-15T00:26:33.964Z,30.00
2023-05-15T00:29:02.197Z,31.70
2023-05-15T00:31:33.180Z,33.00
2023-05-15T00:34:01.415Z,34.60
2023-05-15T00:36:30.826Z,33.03
2023-05-15T00:38:59.001Z,35.10
2023-05-15T00:41:32.096Z,34.47
2023-05-15T00:44:03.295Z,36.70
2023-05-15T00:46:34.181Z,34.70
2023-05-15T00:49:07.937Z,31.93
2023-05-15T00:51:37.159Z,33.70
2023-05-15T00:54:05.772Z,36.27
2023-05-15T00:56:35.015Z,35.43
2023-05-15T00:59:05.316Z,35.30
2023-05-15T01:01:35.568Z,34.70
2023-05-15T01:04:04.959Z,37.33
2023-05-15T01:06:33.954Z,36.90
2023-05-15T01:09:04.108Z,36.93
2023-05-15T01:11:36.824Z,35.87
2023-05-15T01:14:07.786Z,37.33
2023-05-15T01:16:38.810Z,39.17
2023-05-15T01:19:07.256Z,43.03
2023-05-15T01:22:20.041Z,40.20
2023-05-15T01:25:18.881Z,36.80
2023-05-15T01:27:51.690Z,37.00
2023-05-15T01:30:26.634Z,38.97
2023-05-15T01:33:04.485Z,37.93
2023-05-15T01:35:39.647Z,42.07
2023-05-15T01:38:20.328Z,42.43
2023-05-15T01:40:52.285Z,40.40
2023-05-15T01:43:28.346Z,43.63
2023-05-15T01:45:57.987Z,44.10
2023-05-15T01:48:28.673Z,42.90
2023-05-15T01:51:03.626Z,42.23
2023-05-15T01:53:33.788Z,43.20
2023-05-15T01:56:04.260Z,50.27
2023-05-15T01:58:34.787Z,45.00
2023-05-15T02:01:03.390Z,44.90
2023-05-15T02:03:34.443Z,46.00
2023-05-15T02:06:03.533Z,48.60
2023-05-15T02:08:33.090Z,47.50
2023-05-15T02:11:03.747Z,43.43
2023-05-15T02:13:36.348Z,46.43
2023-05-15T02:16:04.840Z,46.70
2023-05-15T02:18:33.020Z,47.80
2023-05-15T02:21:02.906Z,44.37
2023-05-15T02:23:31.214Z,44.50
2023-05-15T02:26:15.049Z,47.60
2023-05-15T02:28:51.791Z,47.33
2023-05-15T02:31:28.547Z,46.77
2023-05-15T02:34:04.394Z,46.00
2023-05-15T02:36:38.827Z,45.40
2023-05-15T02:39:07.958Z,47.50
2023-05-15T02:41:37.910Z,44.10
2023-05-15T02:44:08.638Z,47.03
2023-05-15T02:46:39.439Z,46.03
2023-05-15T02:49:08.131Z,45.63
2023-05-15T02:51:36.582Z,45.07
2023-05-15T02:54:05.106Z,47.27
2023-05-15T02:56:33.600Z,49.70
2023-05-15T02:59:05.008Z,46.97
2023-05-15T03:01:34.629Z,48.80
2023-05-15T03:04:02.978Z,47.70
2023-05-15T03:06:31.698Z,48.10
2023-05-15T03:08:59.959Z,48.17
2023-05-15T03:11:28.088Z,46.03
2023-05-15T03:13:56.216Z,49.50
2023-05-15T03:16:24.413Z,47.60
2023-05-15T03:18:54.311Z,43.63
2023-05-15T03:21:22.640Z,49.50
2023-05-15T03:23:50.965Z,46.37
2023-05-15T03:26:19.138Z,46.00
2023-05-15T03:28:47.257Z,50.23
2023-05-15T03:31:15.514Z,46.60
2023-05-15T03:33:45.632Z,49.87
2023-05-15T03:36:15.135Z,51.70
2023-05-15T03:38:44.244Z,51.63
2023-05-15T03:41:12.433Z,52.93
2023-05-15T03:43:40.794Z,50.43
2023-05-15T03:46:09.054Z,53.50
2023-05-15T03:48:37.312Z,50.23
2023-05-15T03:51:07.476Z,58.63
2023-05-15T03:53:37.088Z,51.00
2023-05-15T03:56:05.963Z,56.57
2023-05-15T03:58:34.194Z,53.07
2023-05-15T04:01:02.422Z,53.93
2023-05-15T04:03:30.666Z,54.97
2023-05-15T04:05:58.884Z,59.20
2023-05-15T04:08:27.086Z,60.33
2023-05-15T04:10:56.732Z,64.40
2023-05-15T04:13:24.888Z,62.40
2023-05-15T04:15:53.995Z,60.97
2023-05-15T04:18:22.200Z,65.70
2023-05-15T04:20:50.538Z,67.43
2023-05-15T04:23:18.667Z,60.40
2023-05-15T04:25:47.075Z,67.07
2023-05-15T04:28:17.048Z,62.30
2023-05-15T04:30:45.203Z,63.90
2023-05-15T04:33:13.442Z,57.90
2023-05-15T04:35:41.725Z,54.20
2023-05-15T04:38:09.886Z,49.97
2023-05-15T04:40:38.083Z,49.50
2023-05-15T04:43:06.560Z,44.10
2023-05-15T04:45:36.435Z,41.50
2023-05-15T04:48:05.101Z,41.37
2023-05-15T04:50:33.474Z,43.47
2023-05-15T04:53:01.584Z,42.07
2023-05-15T04:55:31.115Z,41.00
2023-05-15T04:57:59.826Z,41.00
2023-05-15T05:00:29.114Z,40.77
2023-05-15T05:02:58.819Z,41.83
2023-05-15T05:05:27.312Z,41.43
2023-05-15T05:07:55.571Z,41.00
2023-05-15T05:10:23.795Z,39.50
2023-05-15T05:12:52.026Z,40.80
2023-05-15T05:15:20.318Z,43.30
2023-05-15T05:17:48.571Z,44.90
2023-05-15T05:20:18.495Z,42.03
2023-05-15T05:22:46.718Z,40.57
2023-05-15T05:25:14.921Z,42.27
2023-05-15T05:27:43.515Z,40.53
2023-05-15T05:30:13.154Z,42.20
2023-05-15T05:32:41.653Z,42.03
2023-05-15T05:35:10.698Z,38.03
2023-05-15T05:37:41.291Z,40.83
2023-05-15T05:40:11.360Z,37.73
2023-05-15T05:42:39.626Z,37.90
2023-05-15T05:45:09.327Z,37.27
2023-05-15T05:47:37.517Z,39.53
2023-05-15T05:50:09.019Z,35.97
2023-05-15T05:52:37.231Z,38.43
2023-05-15T05:55:07.920Z,37.30
2023-05-15T05:57:36.346Z,34.30
2023-05-15T06:00:07.038Z,35.10
2023-05-15T06:02:38.234Z,34.30
2023-05-15T06:05:08.651Z,35.07
2023-05-15T06:07:36.971Z,35.80
2023-05-15T06:10:09.664Z,34.17
2023-05-15T06:12:38.043Z,36.60
2023-05-15T06:15:08.026Z,36.17
2023-05-15T06:17:36.697Z,34.20
2023-05-15T06:20:08.457Z,34.57
2023-05-15T06:22:37.713Z,34.83
2023-05-15T06:25:13.650Z,35.50
2023-05-15T06:27:42.680Z,33.60
2023-05-15T06:30:12.771Z,32.77
2023-05-15T06:32:41.826Z,33.23
2023-05-15T06:35:11.575Z,32.73
2023-05-15T06:37:39.934Z,31.03
2023-05-15T06:40:11.307Z,32.83
2023-05-15T06:42:39.452Z,30.93
2023-05-15T06:45:09.779Z,34.60
2023-05-15T06:47:38.042Z,32.40
2023-05-15T06:50:07.436Z,32.90
2023-05-15T06:52:35.804Z,33.37
2023-05-15T06:55:04.025Z,31.37
2023-05-15T06:57:35.291Z,32.27
2023-05-15T07:00:03.907Z,32.87
2023-05-15T07:02:32.243Z,33.33
2023-05-15T07:05:00.564Z,31.93
2023-05-15T07:07:28.743Z,31.63
2023-05-15T07:09:56.932Z,32.00
2023-05-15T07:12:25.085Z,33.80
2023-05-15T07:14:54.593Z,32.83
2023-05-15T07:17:22.836Z,34.07
2023-05-15T07:19:50.973Z,33.80
2023-05-15T07:22:19.197Z,36.57
2023-05-15T07:24:47.741Z,36.30
2023-05-15T07:27:15.929Z,36.37
2023-05-15T07:29:44.080Z,33.90
2023-05-15T07:32:13.519Z,35.13
2023-05-15T07:34:42.703Z,37.27
2023-05-15T07:37:10.975Z,36.87
2023-05-15T07:39:39.214Z,37.00
2023-05-15T07:42:07.959Z,36.60
2023-05-15T07:44:36.464Z,35.30
2023-05-15T07:47:04.741Z,32.60
2023-05-15T07:49:34.547Z,34.50
2023-05-15T07:52:02.860Z,33.83
2023-05-15T07:54:32.177Z,35.13
2023-05-15T07:57:00.509Z,32.60
2023-05-15T07:59:28.726Z,35.40
2023-05-15T08:01:56.984Z,38.27
2023-05-15T08:04:25.268Z,39.23
2023-05-15T08:06:54.987Z,41.30
2023-05-15T08:09:23.187Z,39.30
2023-05-15T08:11:51.388Z,42.90
2023-05-15T08:14:19.714Z,40.13
2023-05-15T08:16:47.990Z,40.33
2023-05-15T08:19:16.306Z,40.67
2023-05-15T08:21:44.566Z,40.13
2023-05-15T08:24:14.014Z,40.23
2023-05-15T08:26:42.458Z,41.30
2023-05-15T08:29:11.572Z,40.27
2023-05-15T08:31:39.771Z,42.80
2023-05-15T08:34:07.959Z,41.80
2023-05-15T08:36:37.737Z,43.23
2023-05-15T08:39:07.415Z,43.63
2023-05-15T08:41:43.781Z,43.50
2023-05-15T08:44:12.783Z,42.20
2023-05-15T08:46:41.406Z,42.43
2023-05-15T08:49:18.335Z,41.03
2023-05-15T08:51:48.166Z,39.10
2023-05-15T08:54:17.051Z,38.20
2023-05-15T08:56:46.701Z,36.90
2023-05-15T08:59:14.917Z,39.00
2023-05-15T09:01:43.772Z,38.70
2023-05-15T09:04:12.062Z,38.93
2023-05-15T09:06:41.932Z,37.03
2023-05-15T09:09:13.564Z,35.30
2023-05-15T09:11:47.531Z,34.80
2023-05-15T09:14:16.029Z,33.50
2023-05-15T09:16:44.583Z,32.97
2023-05-15T09:19:13.529Z,34.20
2023-05-15T09:21:41.750Z,32.37
2023-05-15T09:24:22.671Z,32.03
2023-05-15T09:27:05.364Z,34.00
2023-05-15T09:29:34.993Z,31.30
2023-05-15T09:32:09.934Z,29.90
2023-05-15T09:34:40.509Z,32.10
2023-05-15T09:37:10.986Z,33.63
2023-05-15T09:39:43.430Z,34.23
2023-05-15T09:42:16.086Z,38.10
2023-05-15T09:44:46.444Z,37.67
2023-05-15T09:47:16.881Z,38.20
2023-05-15T09:49:47.086Z,39.67
2023-05-15T09:52:17.317Z,41.57
2023-05-15T09:54:50.128Z,40.30
2023-05-15T09:57:24.275Z,43.20
2023-05-15T09:59:52.582Z,44.47
2023-05-15T10:02:25.163Z,43.40
2023-05-15T10:04:57.773Z,43.80
2023-05-15T10:07:29.992Z,41.93
2023-05-15T10:09:58.746Z,43.80
2023-05-15T10:12:29.937Z,44.17
2023-05-15T10:15:00.826Z,45.40
2023-05-15T10:17:30.313Z,46.33
2023-05-15T10:20:01.280Z,47.30
2023-05-15T10:22:31.843Z,47.20
2023-05-15T10:25:04.605Z,48.37
2023-05-15T10:27:37.405Z,48.00
2023-05-15T10:30:07.063Z,49.20
2023-05-15T10:32:36.282Z,46.73
2023-05-15T10:35:05.060Z,47.23
2023-05-15T10:37:34.161Z,47.07
2023-05-15T10:40:05.065Z,48.93
2023-05-15T10:42:35.630Z,47.00
2023-05-15T10:45:04.175Z,44.37
2023-05-15T10:47:33.022Z,43.80
2023-05-15T10:50:01.490Z,44.83
2023-05-15T10:52:29.889Z,46.83
2023-05-15T10:54:58.133Z,45.27
2023-05-15T10:57:26.447Z,45.00
2023-05-15T10:59:56.000Z,45.00
2023-05-15T11:02:26.725Z,48.93
2023-05-15T11:04:58.668Z,46.40
2023-05-15T11:07:27.663Z,45.00
2023-05-15T11:09:56.870Z,47.63
2023-05-15T11:12:25.577Z,44.60
2023-05-15T11:15:22.548Z,37.30
2023-05-15T11:18:05.309Z,37.77
2023-05-15T11:20:40.958Z,36.03
2023-05-15T11:23:09.995Z,31.50
2023-05-15T11:25:38.532Z,34.33
2023-05-15T11:28:07.744Z,32.50
2023-05-15T11:30:39.669Z,31.20
2023-05-15T11:33:11.601Z,30.00
2023-05-15T11:35:43.481Z,31.07
2023-05-15T11:38:15.923Z,29.80
2023-05-15T11:40:49.804Z,30.27
2023-05-15T11:43:23.273Z,27.80
2023-05-15T11:45:56.183Z,26.37
2023-05-15T11:48:26.803Z,25.37
2023-05-15T11:50:55.143Z,25.87
2023-05-15T11:53:24.370Z,27.10
2023-05-15T11:55:54.692Z,27.20
2023-05-15T11:58:25.791Z,26.80
2023-05-15T12:00:55.563Z,27.20
2023-05-15T12:03:26.791Z,26.37
2023-05-15T12:05:59.556Z,27.53
2023-05-15T12:08:33.044Z,27.20
2023-05-15T12:11:02.233Z,26.93
2023-05-15T12:13:32.067Z,27.73
2023-05-15T12:16:03.637Z,28.07
2023-05-15T12:18:33.012Z,23.93
2023-05-15T12:21:01.743Z,24.30
2023-05-15T12:23:30.022Z,23.47
2023-05-15T12:26:01.864Z,22.60
2023-05-15T12:28:31.118Z,23.07
2023-05-15T12:31:00.894Z,22.87
2023-05-15T12:33:29.487Z,21.70
2023-05-15T12:36:01.150Z,21.27
2023-05-15T12:38:30.724Z,18.73
2023-05-15T12:40:59.519Z,18.30
2023-05-15T12:43:28.560Z,16.93
2023-05-15T12:45:57.566Z,14.77
2023-05-15T12:48:32.787Z,14.60
2023-05-15T12:51:07.415Z,13.07
2023-05-15T12:53:36.289Z,10.60
2023-05-15T12:56:05.474Z,9.70
2023-05-15T12:58:34.708Z,8.03
2023-05-15T13:01:03.799Z,8.10
2023-05-15T13:03:33.853Z,8.33
2023-05-15T13:06:04.297Z,8.67
2023-05-15T13:08:32.609Z,7.10
2023-05-15T13:11:01.532Z,7.73
2023-05-15T13:13:47.961Z,7.50
2023-05-15T13:16:29.588Z,8.30
2023-05-15T13:19:00.492Z,6.50
2023-05-15T13:21:29.804Z,7.37
2023-05-15T13:23:58.598Z,6.70
2023-05-15T13:26:27.088Z,5.90
2023-05-15T13:28:55.157Z,5.33
2023-05-15T13:31:23.556Z,5.73
2023-05-15T13:33:51.744Z,6.23
2023-05-15T13:36:21.199Z,7.40
2023-05-15T13:38:49.552Z,7.40
2023-05-15T13:41:17.765Z,6.80
2023-05-15T13:43:48.073Z,6.60
2023-05-15T13:46:16.766Z,7.10
2023-05-15T13:48:44.992Z,6.97
2023-05-15T13:51:13.147Z,6.00
2023-05-15T13:53:42.956Z,5.77
2023-05-15T13:56:11.306Z,5.30
2023-05-15T13:58:40.467Z,5.33
2023-05-15T14:01:08.726Z,5.30
2023-05-15T14:03:37.294Z,4.63
2023-05-15T14:06:06.337Z,4.43
2023-05-15T14:08:35.281Z,5.07
2023-05-15T14:11:04.984Z,4.33
2023-05-15T14:13:36.450Z,4.80
2023-05-15T14:16:04.883Z,5.27
2023-05-15T14:18:33.167Z,5.30
2023-05-15T14:21:01.354Z,5.70
2023-05-15T14:23:29.562Z,5.10
2023-05-15T14:25:57.701Z,5.67
2023-05-15T14:28:27.288Z,5.70
2023-05-15T14:30:55.522Z,5.67
2023-05-15T14:33:23.642Z,5.20
2023-05-15T14:35:51.819Z,5.53
2023-05-15T14:38:20.419Z,5.23
2023-05-15T14:40:48.683Z,4.90
2023-05-15T14:43:17.123Z,4.90
2023-05-15T14:45:46.646Z,4.80
2023-05-15T14:48:14.831Z,3.70
2023-05-15T14:50:43.295Z,4.50
2023-05-15T14:53:11.482Z,3.63
2023-05-15T14:55:39.864Z,3.03
2023-05-15T14:58:11.347Z,4.53
2023-05-15T15:00:39.599Z,3.40
2023-05-15T15:03:09.404Z,4.47
2023-05-15T15:05:37.822Z,4.80
2023-05-15T15:08:08.229Z,4.40
2023-05-15T15:10:39.019Z,4.80
2023-05-15T15:13:10.160Z,6.17
2023-05-15T15:15:38.983Z,4.67
2023-05-15T15:18:08.897Z,5.13
2023-05-15T15:20:37.214Z,5.00
2023-05-15T15:23:05.924Z,4.50
2023-05-15T15:25:34.817Z,4.73
2023-05-15T15:28:03.815Z,4.70
2023-05-15T15:30:32.521Z,4.20
2023-05-15T15:33:01.142Z,4.50
2023-05-15T15:35:31.112Z,4.50
2023-05-15T15:37:59.305Z,4.30
2023-05-15T15:40:29.924Z,3.93
2023-05-15T15:42:58.492Z,4.07
2023-05-15T15:45:26.720Z,3.40
2023-05-15T15:47:54.909Z,3.73
2023-05-15T15:50:23.497Z,3.97
2023-05-15T15:52:53.205Z,4.00
2023-05-15T15:55:21.557Z,4.30
2023-05-15T15:57:49.752Z,4.40
2023-05-15T16:00:18.979Z,3.90
2023-05-15T16:02:47.479Z,3.40
2023-05-15T16:05:15.814Z,4.00
2023-05-15T16:07:43.916Z,3.80
2023-05-15T16:10:13.670Z,4.30
2023-05-15T16:12:42.733Z,4.30
2023-05-15T16:17:43.810Z,3.80
2023-05-15T16:20:13.233Z,4.50
2023-05-15T16:22:43.021Z,3.90
2023-05-15T16:25:12.895Z,4.50
2023-05-15T16:27:41.223Z,4.90
2023-05-15T16:30:11.684Z,4.47
2023-05-15T16:32:40.505Z,4.77
2023-05-15T16:35:09.854Z,4.30
2023-05-15T16:37:38.195Z,3.50
2023-05-15T16:40:08.566Z,4.20
2023-05-15T16:42:38.985Z,3.47
2023-05-15T16:45:09.308Z,3.10
2023-05-15T16:47:39.676Z,4.67
2023-05-15T16:50:09.340Z,3.37
2023-05-15T16:52:39.116Z,3.10
2023-05-15T16:55:08.504Z,3.40
2023-05-15T16:57:38.148Z,3.73
2023-05-15T17:00:09.402Z,3.83
2023-05-15T17:02:37.910Z,3.23
2023-05-15T17:05:08.929Z,3.00
2023-05-15T17:07:37.844Z,3.30
2023-05-15T17:10:07.529Z,3.67
2023-05-15T17:12:37.798Z,2.77
2023-05-15T17:15:08.286Z,3.53
2023-05-15T17:17:36.624Z,3.60
2023-05-15T17:20:07.724Z,3.30
2023-05-15T17:22:36.827Z,3.80
2023-05-15T17:25:07.047Z,3.60
2023-05-15T17:27:41.192Z,4.00
2023-05-15T17:30:11.361Z,3.63
2023-05-15T17:32:40.578Z,4.13
2023-05-15T17:35:10.322Z,4.30
2023-05-15T17:37:38.820Z,4.70
2023-05-15T17:40:08.696Z,4.03
2023-05-15T17:42:38.389Z,4.10
2023-05-15T17:45:08.084Z,4.00
2023-05-15T17:47:36.341Z,4.73
2023-05-15T17:50:04.876Z,5.40
2023-05-15T17:52:33.183Z,4.63
2023-05-15T17:55:01.391Z,5.43
2023-05-15T17:57:29.662Z,5.00
2023-05-15T17:59:59.324Z,5.00
2023-05-15T18:02:27.560Z,5.50
2023-05-15T18:04:56.218Z,4.50
2023-05-15T18:07:24.361Z,4.83
2023-05-15T18:09:52.725Z,5.27
2023-05-15T18:12:20.902Z,4.20
2023-05-15T18:14:49.010Z,4.23
2023-05-15T18:17:19.937Z,4.67
2023-05-15T18:19:48.070Z,4.40
2023-05-15T18:22:16.366Z,4.67
2023-05-15T18:24:44.625Z,4.10
2023-05-15T18:27:12.784Z,6.03
2023-05-15T18:29:40.941Z,3.97
2023-05-15T18:32:09.640Z,4.20
2023-05-15T18:34:39.124Z,4.73
2023-05-15T18:37:07.282Z,3.90
2023-05-15T18:39:38.623Z,4.50
2023-05-15T18:42:07.905Z,4.30
2023-05-15T18:44:36.215Z,4.23
2023-05-15T18:47:04.701Z,3.83
2023-05-15T18:49:33.806Z,3.53
2023-05-15T18:52:03.393Z,4.43
2023-05-15T18:54:31.562Z,5.00
2023-05-15T18:56:59.756Z,4.50
2023-05-15T18:59:28.406Z,4.50
2023-05-15T19:01:56.980Z,4.60
2023-05-15T19:04:25.422Z,3.63
2023-05-15T19:06:53.638Z,5.90
2023-05-15T19:09:23.220Z,4.30
2023-05-15T19:11:52.494Z,4.70
2023-05-15T19:14:21.110Z,4.70
2023-05-15T19:16:49.320Z,4.00
2023-05-15T19:19:17.650Z,4.93
2023-05-15T19:21:47.463Z,4.97
2023-05-15T19:24:15.688Z,4.20
2023-05-15T19:26:45.270Z,5.20
2023-05-15T19:29:13.852Z,4.50
2023-05-15T19:31:43.846Z,4.93
2023-05-15T19:34:12.145Z,4.90
2023-05-15T19:36:40.630Z,4.67
2023-05-15T19:39:08.910Z,5.50
2023-05-15T19:41:37.195Z,4.80
2023-05-15T19:44:08.334Z,5.17
2023-05-15T19:46:36.746Z,4.60
2023-05-15T19:49:04.989Z,6.67
2023-05-15T19:51:34.199Z,4.73
2023-05-15T19:54:02.296Z,4.67
2023-05-15T19:56:30.775Z,4.67
2023-05-15T19:59:00.409Z,5.47
2023-05-15T20:01:30.068Z,4.70
2023-05-15T20:03:58.414Z,4.53
2023-05-15T20:06:27.156Z,4.83
2023-05-15T20:08:56.361Z,4.67
2023-05-15T20:11:24.585Z,4.60
2023-05-15T20:13:52.750Z,4.27
2023-05-15T20:16:21.891Z,4.60
2023-05-15T20:18:55.547Z,3.63
2023-05-15T20:21:23.783Z,3.43
2023-05-15T20:23:52.108Z,3.70
2023-05-15T20:26:22.426Z,3.90
2023-05-15T20:28:50.719Z,3.87
2023-05-15T20:31:19.199Z,4.00
2023-05-15T20:33:47.786Z,3.70
2023-05-15T20:36:18.225Z,3.90
2023-05-15T20:38:46.805Z,4.97
2023-05-15T20:41:16.474Z,4.23
2023-05-15T20:43:44.655Z,3.17
2023-05-15T20:46:12.928Z,4.37
2023-05-15T20:48:41.214Z,4.27
2023-05-15T20:51:09.309Z,4.50
2023-05-15T20:53:38.818Z,4.80
2023-05-15T20:56:07.209Z,5.10
2023-05-15T20:58:35.916Z,4.47
2023-05-15T21:01:04.136Z,4.27
2023-05-15T21:03:32.505Z,5.13
2023-05-15T21:06:02.255Z,4.40
2023-05-15T21:08:30.682Z,4.47
2023-05-15T21:11:00.298Z,3.90
2023-05-15T21:13:28.943Z,3.33
2023-05-15T21:15:57.670Z,4.27
2023-05-15T21:18:25.874Z,3.90
2023-05-15T21:20:54.008Z,4.50
2023-05-15T21:23:22.141Z,3.83
2023-05-15T21:25:50.367Z,4.90
2023-05-15T21:28:19.977Z,4.40
2023-05-15T21:30:48.301Z,4.63
2023-05-15T21:33:16.540Z,4.00
2023-05-15T21:35:45.375Z,4.30
2023-05-15T21:38:13.544Z,4.43
2023-05-15T21:40:44.784Z,4.03
2023-05-15T21:43:12.981Z,3.90
2023-05-15T21:45:42.463Z,5.30
2023-05-15T21:48:11.120Z,4.77
2023-05-15T21:50:39.631Z,5.20
2023-05-15T21:53:08.043Z,5.40
2023-05-15T21:55:36.242Z,4.43
2023-05-15T21:58:04.410Z,4.47
2023-05-15T22:00:32.684Z,4.30
2023-05-15T22:03:02.522Z,4.70
2023-05-15T22:05:31.095Z,3.70
2023-05-15T22:07:59.483Z,3.87
2023-05-15T22:10:28.117Z,4.57
2023-05-15T22:12:59.085Z,4.30
2023-05-15T22:15:27.415Z,4.67
2023-05-15T22:17:55.734Z,4.23
2023-05-15T22:20:25.782Z,4.33
2023-05-15T22:22:54.066Z,4.00
2023-05-15T22:25:22.225Z,3.90
2023-05-15T22:27:50.672Z,4.40
2023-05-15T22:30:18.955Z,3.90
2023-05-15T22:32:47.161Z,4.13
2023-05-15T22:35:15.791Z,5.90
2023-05-15T22:37:45.538Z,3.83
2023-05-15T22:40:14.734Z,4.53
2023-05-15T22:42:42.914Z,4.40
2023-05-15T22:45:12.089Z,4.33
2023-05-15T22:47:40.299Z,4.27
2023-05-15T22:50:10.335Z,3.70
2023-05-15T22:52:39.355Z,4.57
2023-05-15T22:55:12.636Z,4.20
2023-05-15T22:57:41.325Z,4.17
2023-05-15T23:00:10.721Z,4.47
2023-05-15T23:02:40.180Z,4.63
2023-05-15T23:05:10.946Z,3.80
2023-05-15T23:07:39.222Z,3.77
2023-05-15T23:10:10.293Z,3.70
2023-05-15T23:12:38.644Z,3.27
2023-05-15T23:15:08.053Z,3.53
2023-05-15T23:17:36.244Z,3.73
2023-05-15T23:20:06.774Z,3.57
2023-05-15T23:22:34.915Z,3.33
2023-05-15T23:25:04.220Z,4.47
2023-05-15T23:27:33.793Z,3.63
2023-05-15T23:30:02.239Z,3.70
2023-05-15T23:32:30.491Z,3.20
2023-05-15T23:34:59.388Z,3.90
2023-05-15T23:37:27.640Z,3.30
2023-05-15T23:39:56.015Z,4.67
2023-05-15T23:42:24.555Z,3.47
2023-05-15T23:44:54.095Z,3.00
2023-05-15T23:47:22.274Z,3.27
2023-05-15T23:49:50.425Z,3.43
2023-05-15T23:52:18.680Z,3.57
2023-05-15T23:54:46.913Z,3.00
2023-05-15T23:57:15.625Z,4.00
2023-05-15T23:59:43.839Z,3.50
